Arvilla, North Dakota
Current Conditions -  °F | °C
As of 6:58 AM on Friday 24 Oct 2014 (Local Time) from KRDR Reporting Station
Clear Clear  
Wind Chill: 39°   Ceiling: Unl
Heat Index: 42°   Visibility: 10mi
Dew Point: 37°   Wind: 6mph
Humidity: 79%   Direction: 230°SW
Pressure: 29.75"   Gusts: NA
Location:  47.92°N, 97.49°W
Report Text: KRDR 241158Z AUTO 23005KT 10SM CLR 06/03 A2975 RMK AO2 SLP084 T00580025 10122 20055 53001
Loading
Personal Weather Stations






























Interactive Weather Map
Tropical Storm Tracking
New forecast layout! Learn more

10-Day Weather Forecast

Advertisements
Track Severe Weather on mobile